Time;durP1;ratioP1;P1;durP2;ratioP2;P2;SDS_P1;SDS_P2;PMS_P1;PMS_P2;Temp;Humidity;BMP_temperature;BMP_pressure;BME280_temperature;BME280_humidity;BME280_pressure;Samples;Min_cycle;Max_cycle;Signal;HPM_P1;HPM_P2
2022/01/06 08:58:48;;;;;;;;;0.00;0.00;;;;;;;;5181400;27;78967;-75
2022/01/06 09:01:14;;;;;;;;;0.00;0.00;;;;;;;;5178637;27;20575;-77
2022/01/06 09:03:39;;;;;;;;;0.00;0.00;;;;;;;;5177720;27;8915;-76
2022/01/06 09:06:04;;;;;;;;;0.00;0.00;;;;;;;;5179290;27;8777;-74
2022/01/06 09:08:29;;;;;;;;;0.00;0.00;;;;;;;;5179188;27;8894;-77
2022/01/06 09:10:55;;;;;;;;;0.00;0.00;;;;;;;;5179527;27;8781;-75
2022/01/06 09:13:20;;;;;;;;;0.00;0.00;;;;;;;;5176536;27;8828;-74
2022/01/06 09:15:45;;;;;;;;;0.00;0.00;;;;;;;;5178654;27;8814;-75
2022/01/06 09:18:11;;;;;;;;;0.00;0.00;;;;;;;;5178730;27;8839;-74
2022/01/06 09:20:36;;;;;;;;;0.00;0.00;;;;;;;;5178477;27;8789;-76
2022/01/06 09:23:02;;;;;;;;;0.00;0.00;;;;;;;;5179208;27;8916;-74
2022/01/06 09:25:27;;;;;;;;;0.00;0.00;;;;;;;;5177881;27;8808;-73
2022/01/06 09:27:54;;;;;;;;;0.00;0.00;;;;;;;;5176487;27;8816;-76
2022/01/06 09:30:23;;;;;;;;;1.00;0.00;;;;;;;;5178268;27;8797;-75
2022/01/06 09:32:49;;;;;;;;;0.00;0.00;;;;;;;;5176052;27;12181;-76
2022/01/06 09:35:14;;;;;;;;;0.00;0.00;;;;;;;;5178283;27;11442;-74
2022/01/06 09:37:39;;;;;;;;;0.00;0.00;;;;;;;;5176539;27;8844;-76
2022/01/06 09:40:06;;;;;;;;;0.00;0.00;;;;;;;;5176370;27;8797;-82
2022/01/06 09:42:31;;;;;;;;;0.00;0.00;;;;;;;;5177625;27;8766;-77
2022/01/06 09:44:57;;;;;;;;;0.00;0.00;;;;;;;;5176536;27;11411;-81
2022/01/06 09:47:23;;;;;;;;;7.75;5.25;;;;;;;;5177689;27;8785;-73
2022/01/06 09:49:48;;;;;;;;;0.00;0.00;;;;;;;;5177713;27;12415;-73
2022/01/06 09:52:14;;;;;;;;;0.00;0.00;;;;;;;;5177621;27;11293;-72
2022/01/06 09:54:40;;;;;;;;;5.50;4.50;;;;;;;;5178480;27;8773;-74
2022/01/06 09:57:05;;;;;;;;;1.00;0.00;;;;;;;;5177224;27;11312;-72
2022/01/06 09:59:31;;;;;;;;;0.00;0.00;;;;;;;;5178896;27;11356;-73
2022/01/06 10:01:58;;;;;;;;;0.00;0.00;;;;;;;;5178812;27;8892;-72
2022/01/06 10:04:27;;;;;;;;;0.00;0.00;;;;;;;;5174750;27;8829;-73
2022/01/06 10:07:02;;;;;;;;;0.00;0.00;;;;;;;;5176645;27;11426;-73
2022/01/06 10:09:27;;;;;;;;;0.00;0.00;;;;;;;;5168660;27;11412;-74
2022/01/06 10:11:57;;;;;;;;;0.25;0.00;;;;;;;;5164436;27;11484;-74
2022/01/06 10:14:31;;;;;;;;;0.00;0.00;;;;;;;;5156442;27;8847;-77
2022/01/06 10:16:57;;;;;;;;;0.00;0.00;;;;;;;;5161138;27;11440;-77
2022/01/06 10:19:23;;;;;;;;;0.00;0.00;;;;;;;;5162249;27;11388;-77
2022/01/06 10:21:50;;;;;;;;;0.00;0.00;;;;;;;;5162301;27;11406;-78
2022/01/06 10:24:16;;;;;;;;;0.00;0.00;;;;;;;;5161856;27;9504;-78
2022/01/06 10:26:50;;;;;;;;;0.00;0.00;;;;;;;;5161786;27;11432;-78
2022/01/06 10:29:16;;;;;;;;;0.00;0.00;;;;;;;;5161074;27;11611;-80
2022/01/06 10:31:41;;;;;;;;;0.00;0.00;;;;;;;;5112441;27;11429;-79
2022/01/06 10:34:09;;;;;;;;;0.00;0.00;;;;;;;;5120933;28;8803;-77
2022/01/06 10:36:36;;;;;;;;;0.00;0.00;;;;;;;;5120228;27;8766;-79
2022/01/06 10:39:05;;;;;;;;;0.00;0.00;;;;;;;;5120800;27;11438;-78
2022/01/06 10:41:31;;;;;;;;;0.00;0.00;;;;;;;;5119357;27;11415;-79
2022/01/06 10:43:57;;;;;;;;;0.00;0.00;;;;;;;;5120631;27;11452;-78
2022/01/06 10:46:29;;;;;;;;;0.00;0.00;;;;;;;;5120169;27;8795;-78
2022/01/06 10:48:58;;;;;;;;;0.00;0.00;;;;;;;;5117061;28;11442;-78
2022/01/06 10:51:33;;;;;;;;;0.00;0.00;;;;;;;;5119113;27;11438;-80
2022/01/06 10:53:59;;;;;;;;;0.00;0.00;;;;;;;;5117454;27;11408;-83
2022/01/06 10:56:24;;;;;;;;;0.00;0.00;;;;;;;;5118654;28;11454;-80
2022/01/06 10:58:50;;;;;;;;;0.00;0.00;;;;;;;;5119572;28;8829;-79
2022/01/06 11:01:16;;;;;;;;;0.00;0.00;;;;;;;;5120758;28;9589;-77
2022/01/06 11:03:41;;;;;;;;;0.00;0.00;;;;;;;;5119481;27;8937;-76
2022/01/06 11:06:06;;;;;;;;;0.00;0.00;;;;;;;;5121131;28;12135;-74
2022/01/06 11:08:33;;;;;;;;;0.00;0.00;;;;;;;;5121040;27;8819;-75
2022/01/06 11:13:33;;;;;;;;;0.00;0.00;;;;;;;;5119242;27;11420;-78
2022/01/06 11:15:59;;;;;;;;;0.00;0.00;;;;;;;;5120628;28;11448;-80
2022/01/06 11:18:24;;;;;;;;;0.00;0.00;;;;;;;;5122686;27;8818;-83
2022/01/06 11:20:51;;;;;;;;;0.00;0.00;;;;;;;;5116551;27;8787;-82
2022/01/06 11:23:23;;;;;;;;;0.00;0.00;;;;;;;;5110692;28;8870;-82
2022/01/06 11:26:02;;;;;;;;;0.00;0.00;;;;;;;;5100544;28;11425;-79
2022/01/06 11:28:30;;;;;;;;;0.00;0.00;;;;;;;;5097182;28;11438;-79
2022/01/06 11:30:55;;;;;;;;;0.00;0.00;;;;;;;;5103417;28;11486;-80
2022/01/06 11:33:20;;;;;;;;;0.00;0.00;;;;;;;;5118853;28;11417;-73
2022/01/06 11:35:54;;;;;;;;;0.00;0.00;;;;;;;;5119982;28;8913;-75
2022/01/06 11:38:20;;;;;;;;;0.00;0.00;;;;;;;;5112072;28;8793;-74
2022/01/06 11:40:50;;;;;;;;;1.00;0.00;;;;;;;;5136004;27;11409;-73
2022/01/06 11:43:15;;;;;;;;;0.00;0.00;;;;;;;;5100720;27;11497;-76
2022/01/06 11:45:41;;;;;;;;;0.00;0.00;;;;;;;;5099247;28;12161;-79
2022/01/06 11:48:07;;;;;;;;;1.00;0.00;;;;;;;;5101377;28;8808;-77
2022/01/06 11:50:36;;;;;;;;;0.50;0.25;;;;;;;;5101860;28;8773;-77
2022/01/06 11:53:04;;;;;;;;;0.00;0.00;;;;;;;;5100945;28;11551;-82
2022/01/06 11:55:33;;;;;;;;;0.00;0.00;;;;;;;;5101348;28;11521;-77
2022/01/06 11:58:18;;;;;;;;;0.00;0.00;;;;;;;;5100533;28;11476;-80
2022/01/06 12:00:56;;;;;;;;;0.00;0.00;;;;;;;;5100518;28;11437;-80
2022/01/06 12:03:32;;;;;;;;;0.00;0.00;;;;;;;;5120696;28;11448;-81
2022/01/06 12:05:58;;;;;;;;;0.00;0.00;;;;;;;;5118790;28;11441;-81
2022/01/06 12:08:40;;;;;;;;;0.00;0.00;;;;;;;;5121150;28;11439;-80
2022/01/06 12:11:26;;;;;;;;;0.00;0.00;;;;;;;;5120579;27;9600;-79
2022/01/06 12:13:53;;;;;;;;;1.00;1.00;;;;;;;;5119186;28;11446;-84
2022/01/06 12:16:25;;;;;;;;;0.00;0.00;;;;;;;;5121539;27;11420;-82
2022/01/06 12:18:50;;;;;;;;;0.00;0.00;;;;;;;;5120987;27;11528;-82
2022/01/06 12:21:15;;;;;;;;;0.00;0.00;;;;;;;;5120784;27;11535;-83
2022/01/06 12:23:40;;;;;;;;;0.50;0.50;;;;;;;;5121394;28;8811;-81
2022/01/06 12:26:09;;;;;;;;;0.00;0.00;;;;;;;;5119730;28;8961;-80
2022/01/06 12:28:43;;;;;;;;;0.00;0.00;;;;;;;;5120329;27;8806;-82
2022/01/06 12:31:09;;;;;;;;;0.00;0.00;;;;;;;;5120527;27;12192;-81
2022/01/06 12:33:42;;;;;;;;;1.00;1.00;;;;;;;;5120285;28;11531;-80
2022/01/06 12:36:07;;;;;;;;;0.00;0.00;;;;;;;;5120856;27;10357;-81
2022/01/06 12:38:34;;;;;;;;;0.00;0.00;;;;;;;;5120827;28;11449;-80
2022/01/06 12:41:00;;;;;;;;;0.00;0.00;;;;;;;;5120432;27;8793;-79
2022/01/06 12:43:27;;;;;;;;;0.00;0.00;;;;;;;;5120108;27;11443;-80
2022/01/06 12:46:09;;;;;;;;;0.00;0.00;;;;;;;;5120972;27;8763;-79
2022/01/06 12:48:38;;;;;;;;;2.00;0.00;;;;;;;;5119833;27;11454;-80
2022/01/06 12:51:04;;;;;;;;;0.00;0.00;;;;;;;;5119745;27;11487;-80
2022/01/06 12:53:31;;;;;;;;;0.25;0.00;;;;;;;;5119645;27;11466;-80
2022/01/06 12:55:57;;;;;;;;;0.00;0.00;;;;;;;;5120496;27;8787;-80
2022/01/06 12:58:23;;;;;;;;;0.00;0.00;;;;;;;;5118182;28;11480;-80
2022/01/06 13:00:52;;;;;;;;;0.00;0.00;;;;;;;;5120118;27;8895;-80
2022/01/06 13:03:24;;;;;;;;;0.00;0.00;;;;;;;;5120395;27;12251;-80
2022/01/06 13:05:50;;;;;;;;;0.00;0.00;;;;;;;;5117005;28;11555;-81
2022/01/06 13:08:15;;;;;;;;;0.00;0.00;;;;;;;;5119385;28;11535;-77
2022/01/06 13:10:40;;;;;;;;;0.00;0.00;;;;;;;;5119871;28;8801;-79
2022/01/06 13:13:06;;;;;;;;;0.00;0.00;;;;;;;;5119289;28;8790;-77
2022/01/06 13:15:34;;;;;;;;;0.00;0.00;;;;;;;;5120318;27;8833;-77
2022/01/06 13:18:00;;;;;;;;;0.00;0.00;;;;;;;;5120004;27;8810;-77
2022/01/06 13:20:25;;;;;;;;;0.00;0.00;;;;;;;;5119457;27;11465;-78
2022/01/06 13:25:24;;;;;;;;;0.00;0.00;;;;;;;;5119775;28;8779;-80
2022/01/06 13:28:10;;;;;;;;;0.00;0.00;;;;;;;;5119556;28;11424;-79
2022/01/06 13:30:40;;;;;;;;;0.00;0.00;;;;;;;;5117291;28;11424;-80
2022/01/06 13:33:09;;;;;;;;;0.00;0.00;;;;;;;;5119150;27;11426;-79
2022/01/06 13:35:54;;;;;;;;;0.00;0.00;;;;;;;;5119626;27;11400;-79
2022/01/06 13:38:21;;;;;;;;;0.00;0.00;;;;;;;;5119081;28;12133;-78
2022/01/06 13:40:47;;;;;;;;;1.00;0.00;;;;;;;;5119292;27;11405;-79
2022/01/06 13:43:17;;;;;;;;;0.00;0.00;;;;;;;;5119603;27;11513;-79
2022/01/06 13:45:45;;;;;;;;;0.00;0.00;;;;;;;;5123277;27;11412;-79
2022/01/06 13:51:06;;;;;;;;;0.00;0.00;;;;;;;;5119596;28;11417;-79
2022/01/06 13:53:42;;;;;;;;;0.00;0.00;;;;;;;;5120106;28;11446;-80
2022/01/06 13:56:07;;;;;;;;;0.00;0.00;;;;;;;;5123197;27;11516;-78
2022/01/06 13:58:40;;;;;;;;;1.00;0.00;;;;;;;;5122796;27;11648;-77
2022/01/06 14:01:06;;;;;;;;;0.00;0.00;;;;;;;;5122708;27;8783;-79
2022/01/06 14:03:32;;;;;;;;;0.00;0.00;;;;;;;;5122626;27;11528;-77
2022/01/06 14:06:01;;;;;;;;;0.00;0.00;;;;;;;;5122369;27;8795;-78
2022/01/06 14:08:26;;;;;;;;;0.50;0.00;;;;;;;;5119969;28;11416;-78
2022/01/06 14:10:52;;;;;;;;;0.00;0.00;;;;;;;;5122424;28;11469;-78
2022/01/06 14:13:17;;;;;;;;;0.00;0.00;;;;;;;;5123190;27;8791;-78
2022/01/06 14:15:44;;;;;;;;;0.00;0.00;;;;;;;;5123156;27;8883;-78
2022/01/06 14:18:09;;;;;;;;;0.00;0.00;;;;;;;;5121059;28;8824;-78
2022/01/06 14:20:35;;;;;;;;;0.00;0.00;;;;;;;;5122509;28;11572;-78
2022/01/06 14:23:00;;;;;;;;;0.00;0.00;;;;;;;;5122569;28;8806;-79
2022/01/06 14:25:25;;;;;;;;;0.00;0.00;;;;;;;;5122346;28;8786;-77
2022/01/06 14:27:50;;;;;;;;;0.00;0.00;;;;;;;;5122601;27;8803;-77
2022/01/06 14:30:17;;;;;;;;;0.00;0.00;;;;;;;;5121054;28;8888;-77
2022/01/06 14:32:42;;;;;;;;;0.00;0.00;;;;;;;;5121963;28;8810;-78
2022/01/06 14:35:08;;;;;;;;;0.00;0.00;;;;;;;;5123326;27;11414;-81
2022/01/06 14:37:33;;;;;;;;;0.00;0.00;;;;;;;;5120525;27;8822;-79
2022/01/06 14:39:58;;;;;;;;;0.00;0.00;;;;;;;;5120615;28;8834;-77
2022/01/06 14:42:24;;;;;;;;;0.00;0.00;;;;;;;;5122582;28;8813;-77
2022/01/06 14:44:49;;;;;;;;;1.00;0.00;;;;;;;;5122723;28;8845;-78
2022/01/06 14:47:14;;;;;;;;;1.00;0.00;;;;;;;;5122595;28;8779;-78
2022/01/06 14:49:40;;;;;;;;;0.00;0.00;;;;;;;;5122784;28;8797;-80
2022/01/06 14:52:05;;;;;;;;;0.00;0.00;;;;;;;;5122312;28;8759;-78
2022/01/06 14:54:30;;;;;;;;;0.00;0.00;;;;;;;;5122345;27;8794;-78
2022/01/06 14:56:55;;;;;;;;;0.00;0.00;;;;;;;;5122634;28;8888;-78
2022/01/06 14:59:23;;;;;;;;;0.00;0.00;;;;;;;;5121433;27;8810;-78
2022/01/06 15:01:49;;;;;;;;;0.00;0.00;;;;;;;;5121935;27;8810;-78
2022/01/06 15:04:14;;;;;;;;;0.00;0.00;;;;;;;;5121518;27;11452;-78
2022/01/06 15:06:40;;;;;;;;;0.00;0.00;;;;;;;;5121665;27;12196;-78
2022/01/06 15:09:05;;;;;;;;;0.00;0.00;;;;;;;;5117847;28;8795;-78
2022/01/06 15:11:33;;;;;;;;;0.00;0.00;;;;;;;;5115580;28;8812;-77
2022/01/06 15:13:58;;;;;;;;;0.00;0.00;;;;;;;;5119586;28;8783;-78
2022/01/06 15:16:24;;;;;;;;;1.00;0.00;;;;;;;;5121730;28;12162;-77
2022/01/06 15:18:49;;;;;;;;;0.00;0.00;;;;;;;;5120969;28;8902;-77
2022/01/06 15:21:14;;;;;;;;;0.00;0.00;;;;;;;;5121201;28;8833;-78
2022/01/06 15:23:40;;;;;;;;;0.00;0.00;;;;;;;;5120962;27;8806;-78
2022/01/06 15:26:06;;;;;;;;;0.00;0.00;;;;;;;;5121318;27;8833;-78
2022/01/06 15:28:31;;;;;;;;;0.00;0.00;;;;;;;;5117342;28;9047;-77
2022/01/06 15:30:57;;;;;;;;;1.00;0.00;;;;;;;;5120247;28;8884;-78
2022/01/06 15:33:22;;;;;;;;;0.00;0.00;;;;;;;;5121229;28;8896;-78
2022/01/06 15:35:50;;;;;;;;;0.00;0.00;;;;;;;;5121052;28;8806;-80
2022/01/06 15:38:16;;;;;;;;;0.00;0.00;;;;;;;;5120711;27;8907;-78
2022/01/06 15:40:41;;;;;;;;;0.00;0.00;;;;;;;;5121666;27;11538;-79
2022/01/06 15:43:08;;;;;;;;;0.00;0.00;;;;;;;;5121082;27;8783;-79
2022/01/06 15:45:33;;;;;;;;;0.00;0.00;;;;;;;;5120298;27;8830;-80
2022/01/06 15:47:58;;;;;;;;;0.00;0.00;;;;;;;;5120064;27;11451;-78
2022/01/06 15:50:24;;;;;;;;;0.00;0.00;;;;;;;;5120708;27;8783;-77
2022/01/06 15:52:49;;;;;;;;;0.00;0.00;;;;;;;;5119967;27;8806;-78
2022/01/06 15:55:14;;;;;;;;;0.00;0.00;;;;;;;;5120083;28;9475;-80
2022/01/06 15:57:40;;;;;;;;;0.00;0.00;;;;;;;;5119849;27;8806;-77
2022/01/06 16:05:47;;;;;;;;;0.00;0.00;;;;;;;;5113520;27;12229;-83
2022/01/06 16:08:17;;;;;;;;;0.00;0.00;;;;;;;;5119106;27;11515;-83
2022/01/06 16:10:43;;;;;;;;;0.00;0.00;;;;;;;;5118960;28;8795;-75
2022/01/06 16:13:09;;;;;;;;;0.00;0.00;;;;;;;;5121462;27;11477;-87
2022/01/06 16:15:35;;;;;;;;;1.00;0.00;;;;;;;;5121388;27;11466;-82
2022/01/06 16:18:00;;;;;;;;;0.00;0.00;;;;;;;;5119213;28;12405;-80
2022/01/06 16:20:25;;;;;;;;;0.00;0.00;;;;;;;;5120389;28;9475;-88
2022/01/06 16:22:52;;;;;;;;;0.00;0.00;;;;;;;;5121400;28;8802;-82
2022/01/06 16:25:19;;;;;;;;;0.00;0.00;;;;;;;;5120797;28;8795;-81
2022/01/06 16:27:45;;;;;;;;;0.00;0.00;;;;;;;;5120259;28;11449;-81
2022/01/06 16:30:11;;;;;;;;;0.00;0.00;;;;;;;;5119001;28;11647;-84
2022/01/06 16:32:37;;;;;;;;;0.00;0.00;;;;;;;;5119805;27;8802;-83
2022/01/06 16:35:02;;;;;;;;;0.00;0.00;;;;;;;;5121338;27;11431;-81
2022/01/06 16:37:28;;;;;;;;;0.00;0.00;;;;;;;;5120553;27;9494;-83
2022/01/06 16:39:53;;;;;;;;;0.00;0.00;;;;;;;;5120857;28;8859;-83
2022/01/06 16:42:19;;;;;;;;;0.00;0.00;;;;;;;;5120342;27;8815;-75
2022/01/06 16:44:45;;;;;;;;;0.00;0.00;;;;;;;;5120232;27;9613;-78
2022/01/06 16:47:10;;;;;;;;;0.00;0.00;;;;;;;;5120055;27;8826;-76
2022/01/06 16:49:36;;;;;;;;;0.00;0.00;;;;;;;;5119685;27;8927;-78
2022/01/06 16:52:01;;;;;;;;;0.00;0.00;;;;;;;;5119466;27;8871;-76
2022/01/06 16:54:27;;;;;;;;;0.00;0.00;;;;;;;;5119701;27;8898;-77
2022/01/06 16:56:52;;;;;;;;;0.00;0.00;;;;;;;;5116472;28;9685;-78
2022/01/06 16:59:17;;;;;;;;;0.00;0.00;;;;;;;;5120024;28;8814;-78
2022/01/06 17:01:43;;;;;;;;;1.00;0.00;;;;;;;;5120506;27;8802;-77
2022/01/06 17:04:08;;;;;;;;;0.00;0.00;;;;;;;;5119977;27;8814;-78
2022/01/06 17:06:36;;;;;;;;;0.75;0.00;;;;;;;;5119607;28;8786;-77
2022/01/06 17:09:02;;;;;;;;;0.00;0.00;;;;;;;;5119804;27;8771;-77
2022/01/06 17:11:27;;;;;;;;;0.00;0.00;;;;;;;;5118622;28;11444;-77
2022/01/06 17:13:53;;;;;;;;;0.00;0.00;;;;;;;;5120607;28;11544;-77
2022/01/06 17:16:18;;;;;;;;;0.00;0.00;;;;;;;;5120352;27;8822;-77
2022/01/06 17:18:44;;;;;;;;;0.00;0.00;;;;;;;;5120916;27;8901;-76
2022/01/06 17:21:09;;;;;;;;;0.00;0.00;;;;;;;;5123533;27;8767;-78
2022/01/06 17:23:39;;;;;;;;;0.00;0.00;;;;;;;;5122991;27;8823;-77
2022/01/06 17:26:06;;;;;;;;;0.00;0.00;;;;;;;;5122594;27;8810;-77
2022/01/06 17:28:31;;;;;;;;;0.25;0.25;;;;;;;;5119574;27;11447;-77
2022/01/06 17:30:56;;;;;;;;;0.00;0.00;;;;;;;;5120130;28;11479;-76
2022/01/06 17:33:22;;;;;;;;;0.25;0.25;;;;;;;;5123599;28;8805;-75
2022/01/06 17:35:47;;;;;;;;;0.00;0.00;;;;;;;;5123103;27;8817;-76
2022/01/06 17:38:12;;;;;;;;;0.50;0.00;;;;;;;;5123284;28;8833;-76
2022/01/06 17:40:37;;;;;;;;;0.50;0.00;;;;;;;;5123056;28;8827;-77
2022/01/06 17:43:05;;;;;;;;;0.00;0.00;;;;;;;;5123064;28;8818;-76
2022/01/06 17:45:32;;;;;;;;;0.50;0.00;;;;;;;;5122901;28;8893;-77
2022/01/06 17:47:57;;;;;;;;;0.25;0.00;;;;;;;;5122219;27;11411;-80
2022/01/06 17:50:22;;;;;;;;;0.00;0.00;;;;;;;;5122551;28;11520;-78
2022/01/06 17:52:48;;;;;;;;;1.75;0.00;;;;;;;;5121472;28;8811;-80
2022/01/06 17:55:13;;;;;;;;;0.00;0.00;;;;;;;;5122166;28;9490;-74
2022/01/06 17:57:38;;;;;;;;;1.00;0.00;;;;;;;;5121890;28;8826;-74
2022/01/06 18:00:05;;;;;;;;;0.25;0.00;;;;;;;;5122279;28;8908;-76
2022/01/06 18:02:31;;;;;;;;;0.00;0.00;;;;;;;;5123504;27;9369;-77
2022/01/06 18:05:00;;;;;;;;;1.00;0.00;;;;;;;;5122684;27;11454;-86
2022/01/06 18:07:37;;;;;;;;;0.00;0.00;;;;;;;;5121833;28;11447;-81
2022/01/06 18:12:47;;;;;;;;;1.00;0.00;;;;;;;;5123096;28;11403;-83
2022/01/06 18:15:12;;;;;;;;;1.00;1.00;;;;;;;;5120744;28;13164;-79
2022/01/06 18:17:37;;;;;;;;;0.00;0.00;;;;;;;;5107191;28;8798;-80
2022/01/06 18:20:03;;;;;;;;;1.50;1.00;;;;;;;;5107279;28;8876;-80
2022/01/06 18:22:28;;;;;;;;;0.00;0.00;;;;;;;;5103500;28;10432;-82
2022/01/06 18:24:58;;;;;;;;;0.00;0.00;;;;;;;;5122592;28;10395;-79
2022/01/06 18:27:24;;;;;;;;;1.00;0.00;;;;;;;;5119595;28;8827;-80
2022/01/06 18:29:49;;;;;;;;;0.00;0.00;;;;;;;;5120431;27;11568;-78
2022/01/06 18:32:14;;;;;;;;;0.00;0.00;;;;;;;;5121395;28;8917;-74
2022/01/06 18:34:40;;;;;;;;;0.50;0.00;;;;;;;;5121692;27;8899;-73
2022/01/06 18:37:05;;;;;;;;;0.00;0.00;;;;;;;;5114124;28;8836;-84
2022/01/06 18:39:30;;;;;;;;;0.50;0.00;;;;;;;;5100025;28;9264;-79
2022/01/06 18:41:56;;;;;;;;;0.00;0.00;;;;;;;;5101998;28;8800;-75
2022/01/06 18:44:21;;;;;;;;;0.00;0.00;;;;;;;;5102195;28;9625;-76
2022/01/06 18:46:46;;;;;;;;;1.00;0.00;;;;;;;;5102461;28;8858;-80
2022/01/06 18:49:11;;;;;;;;;0.00;0.00;;;;;;;;5099977;28;8805;-77
2022/01/06 18:51:37;;;;;;;;;0.50;0.50;;;;;;;;5097378;28;9580;-80
2022/01/06 18:54:02;;;;;;;;;0.00;0.00;;;;;;;;5114023;28;8803;-78
2022/01/06 18:56:27;;;;;;;;;0.00;0.00;;;;;;;;5119716;28;9498;-77
2022/01/06 18:58:54;;;;;;;;;2.00;1.00;;;;;;;;5121081;28;8881;-76
2022/01/06 19:01:19;;;;;;;;;0.00;0.00;;;;;;;;5120344;28;9277;-76
2022/01/06 19:03:45;;;;;;;;;5.00;1.00;;;;;;;;5121483;27;11434;-83
2022/01/06 19:06:10;;;;;;;;;1.00;1.00;;;;;;;;5121040;28;8830;-81
2022/01/06 19:08:36;;;;;;;;;0.00;0.00;;;;;;;;5120268;28;10440;-81
2022/01/06 19:11:02;;;;;;;;;3.25;1.00;;;;;;;;5121801;27;8825;-84
2022/01/06 19:13:29;;;;;;;;;0.00;0.00;;;;;;;;5121881;27;10595;-83
2022/01/06 19:15:55;;;;;;;;;1.00;1.00;;;;;;;;5121589;27;11517;-82
2022/01/06 19:18:21;;;;;;;;;1.00;1.00;;;;;;;;5121380;27;11444;-84
2022/01/06 19:20:47;;;;;;;;;0.00;0.00;;;;;;;;5121390;27;8803;-79
2022/01/06 19:23:12;;;;;;;;;1.50;0.00;;;;;;;;5121557;27;11455;-78
2022/01/06 19:25:38;;;;;;;;;0.00;0.00;;;;;;;;5121944;27;9316;-87
2022/01/06 19:28:03;;;;;;;;;0.00;0.00;;;;;;;;5121242;28;9489;-81
2022/01/06 19:30:28;;;;;;;;;0.50;0.00;;;;;;;;5122242;28;8876;-79
2022/01/06 19:33:00;;;;;;;;;0.00;0.00;;;;;;;;5121418;28;8794;-79
2022/01/06 19:35:25;;;;;;;;;0.00;0.00;;;;;;;;5119118;28;8771;-79
2022/01/06 19:37:50;;;;;;;;;0.00;0.00;;;;;;;;5121057;28;11474;-82
2022/01/06 19:40:16;;;;;;;;;0.00;0.00;;;;;;;;5122067;27;9565;-84
2022/01/06 19:42:44;;;;;;;;;0.00;0.00;;;;;;;;5120443;27;8791;-82
2022/01/06 19:45:11;;;;;;;;;1.00;1.00;;;;;;;;5120844;27;11629;-82
2022/01/06 19:47:37;;;;;;;;;2.00;1.00;;;;;;;;5121163;27;11433;-81
2022/01/06 19:50:10;;;;;;;;;0.00;0.00;;;;;;;;5121305;27;11522;-79
2022/01/06 19:52:36;;;;;;;;;0.00;0.00;;;;;;;;5118326;27;11479;-79
2022/01/06 19:55:01;;;;;;;;;0.00;0.00;;;;;;;;5112027;28;11472;-78
2022/01/06 19:57:27;;;;;;;;;0.00;0.00;;;;;;;;5119995;27;9660;-78
2022/01/06 19:59:53;;;;;;;;;1.75;0.25;;;;;;;;5120260;27;8818;-78
2022/01/06 20:02:18;;;;;;;;;0.25;0.25;;;;;;;;5121606;28;11443;-78
2022/01/06 20:04:44;;;;;;;;;1.00;0.00;;;;;;;;5120860;28;11428;-78
2022/01/06 20:07:09;;;;;;;;;0.00;0.00;;;;;;;;5115667;28;13476;-84
2022/01/06 20:09:34;;;;;;;;;0.00;0.00;;;;;;;;5111345;28;8891;-88
2022/01/06 20:11:59;;;;;;;;;1.00;0.75;;;;;;;;5120312;28;8819;-87
2022/01/06 20:14:25;;;;;;;;;4.50;0.00;;;;;;;;5120174;28;12589;-88
2022/01/06 20:16:50;;;;;;;;;7.00;0.75;;;;;;;;5118545;28;11705;-88
2022/01/06 20:19:16;;;;;;;;;0.00;0.00;;;;;;;;5120011;27;11333;-88
2022/01/06 20:21:41;;;;;;;;;0.00;0.00;;;;;;;;5120197;28;11338;-88
2022/01/06 20:24:06;;;;;;;;;1.00;1.00;;;;;;;;5120101;27;8799;-88
2022/01/06 20:26:32;;;;;;;;;0.00;0.00;;;;;;;;5120025;28;8795;-89
2022/01/06 20:28:57;;;;;;;;;1.75;0.00;;;;;;;;5119939;28;8811;-89
2022/01/06 20:31:23;;;;;;;;;1.00;0.00;;;;;;;;5119251;27;8975;-87
2022/01/06 20:33:48;;;;;;;;;1.00;0.00;;;;;;;;5118279;27;8885;-88
2022/01/06 20:36:14;;;;;;;;;0.75;0.75;;;;;;;;5119407;28;8791;-88
2022/01/06 20:38:40;;;;;;;;;0.00;0.00;;;;;;;;5116564;28;11505;-80
2022/01/06 20:41:05;;;;;;;;;0.00;0.00;;;;;;;;5118500;27;9624;-86
2022/01/06 20:43:31;;;;;;;;;0.00;0.00;;;;;;;;5116936;28;8958;-83
2022/01/06 20:45:57;;;;;;;;;1.00;0.00;;;;;;;;5117337;28;8803;-82
2022/01/06 20:51:16;;;;;;;;;0.00;0.00;;;;;;;;5106028;28;11412;-78
2022/01/06 20:53:44;;;;;;;;;0.00;0.00;;;;;;;;5117004;27;11439;-79
2022/01/06 20:56:10;;;;;;;;;0.75;0.75;;;;;;;;5117596;27;11465;-78
2022/01/06 20:58:35;;;;;;;;;0.75;0.00;;;;;;;;5118187;27;12084;-76
2022/01/06 21:01:01;;;;;;;;;0.00;0.00;;;;;;;;5118979;27;8790;-78
2022/01/06 21:03:26;;;;;;;;;0.00;0.00;;;;;;;;5117928;28;8818;-77
2022/01/06 21:05:51;;;;;;;;;0.00;0.00;;;;;;;;5117287;28;8810;-78
2022/01/06 21:08:18;;;;;;;;;0.00;0.00;;;;;;;;5119368;28;8810;-78
2022/01/06 21:10:43;;;;;;;;;1.25;0.00;;;;;;;;5118400;27;8802;-78
2022/01/06 21:13:09;;;;;;;;;0.00;0.00;;;;;;;;5118905;27;11546;-79
2022/01/06 21:15:36;;;;;;;;;1.00;1.00;;;;;;;;5120107;27;9506;-77
2022/01/06 21:18:01;;;;;;;;;0.00;0.00;;;;;;;;5119122;27;8786;-76
2022/01/06 21:20:27;;;;;;;;;1.00;1.00;;;;;;;;5119119;27;11434;-76
2022/01/06 21:22:52;;;;;;;;;1.00;0.00;;;;;;;;5119236;28;9330;-77
2022/01/06 21:25:17;;;;;;;;;0.50;0.50;;;;;;;;5119292;27;8835;-77
2022/01/06 21:27:43;;;;;;;;;0.50;0.00;;;;;;;;5118263;28;11954;-77
2022/01/06 21:30:10;;;;;;;;;1.75;0.75;;;;;;;;5118664;27;8823;-76
2022/01/06 21:32:40;;;;;;;;;1.00;1.00;;;;;;;;5117516;27;12462;-77
2022/01/06 21:35:05;;;;;;;;;0.00;0.00;;;;;;;;5120159;27;11404;-77
2022/01/06 21:37:31;;;;;;;;;0.00;0.00;;;;;;;;5119689;28;11447;-76
2022/01/06 21:39:57;;;;;;;;;0.00;0.00;;;;;;;;5117672;28;9539;-78
2022/01/06 21:42:23;;;;;;;;;1.00;1.00;;;;;;;;5106722;28;8779;-76
2022/01/06 21:44:49;;;;;;;;;0.00;0.00;;;;;;;;5119117;27;11533;-76
2022/01/06 21:47:14;;;;;;;;;1.00;0.00;;;;;;;;5119327;28;9566;-77
2022/01/06 21:49:40;;;;;;;;;1.00;1.00;;;;;;;;5119824;28;11520;-78
2022/01/06 21:52:05;;;;;;;;;0.00;0.00;;;;;;;;5119947;28;8940;-76
2022/01/06 21:54:30;;;;;;;;;0.75;0.75;;;;;;;;5120010;27;8771;-76
2022/01/06 21:56:56;;;;;;;;;0.00;0.00;;;;;;;;5119262;28;9185;-76
2022/01/06 21:59:21;;;;;;;;;0.00;0.00;;;;;;;;5119641;28;8798;-77
2022/01/06 22:01:46;;;;;;;;;0.00;0.00;;;;;;;;5117916;28;8838;-78
2022/01/06 22:04:12;;;;;;;;;0.00;0.00;;;;;;;;5119663;27;8798;-77
2022/01/06 22:06:37;;;;;;;;;1.00;1.00;;;;;;;;5122659;28;8791;-77
2022/01/06 22:09:03;;;;;;;;;0.00;0.00;;;;;;;;5122128;28;8807;-77
2022/01/06 22:11:29;;;;;;;;;0.00;0.00;;;;;;;;5122614;27;8807;-77
2022/01/06 22:13:54;;;;;;;;;0.00;0.00;;;;;;;;5122430;28;11580;-77
2022/01/06 22:16:19;;;;;;;;;0.50;0.00;;;;;;;;5122387;28;8782;-77
2022/01/06 22:18:44;;;;;;;;;0.25;0.00;;;;;;;;5122473;28;8810;-77
2022/01/06 22:21:11;;;;;;;;;0.00;0.00;;;;;;;;5123166;28;8783;-76
2022/01/06 22:23:37;;;;;;;;;1.00;0.00;;;;;;;;5122707;27;8806;-78
2022/01/06 22:26:02;;;;;;;;;0.00;0.00;;;;;;;;5122502;27;11427;-77
2022/01/06 22:28:28;;;;;;;;;0.25;0.00;;;;;;;;5122336;28;9518;-78
2022/01/06 22:30:53;;;;;;;;;2.00;0.75;;;;;;;;5122817;27;8790;-78
2022/01/06 22:33:18;;;;;;;;;0.00;0.00;;;;;;;;5122125;28;11596;-78
2022/01/06 22:35:46;;;;;;;;;1.50;1.00;;;;;;;;5122078;27;11367;-78
2022/01/06 22:38:11;;;;;;;;;3.00;2.00;;;;;;;;5121685;27;10328;-79
2022/01/06 22:40:41;;;;;;;;;0.25;0.25;;;;;;;;5119877;27;11494;-79
2022/01/06 22:43:07;;;;;;;;;1.00;1.00;;;;;;;;5121799;27;11362;-78
2022/01/06 22:45:32;;;;;;;;;1.00;1.00;;;;;;;;5122534;27;11495;-77
2022/01/06 22:47:58;;;;;;;;;2.00;0.50;;;;;;;;5123028;28;8795;-78
2022/01/06 22:50:23;;;;;;;;;0.25;0.25;;;;;;;;5121586;27;11521;-78
2022/01/06 22:52:49;;;;;;;;;2.25;1.50;;;;;;;;5121972;28;11287;-78
2022/01/06 22:55:15;;;;;;;;;1.00;1.00;;;;;;;;5121739;28;12772;-78
2022/01/06 22:57:40;;;;;;;;;0.00;0.00;;;;;;;;5115026;27;11271;-80
2022/01/06 23:00:07;;;;;;;;;2.00;0.50;;;;;;;;5119881;27;8806;-78
2022/01/06 23:02:32;;;;;;;;;1.50;1.00;;;;;;;;5121036;27;11444;-78
2022/01/06 23:04:57;;;;;;;;;0.75;0.50;;;;;;;;5120504;27;12392;-78
2022/01/06 23:07:23;;;;;;;;;1.00;1.00;;;;;;;;5120790;28;11482;-79
2022/01/06 23:09:48;;;;;;;;;0.00;0.00;;;;;;;;5121236;28;11311;-77
2022/01/06 23:12:13;;;;;;;;;1.50;0.25;;;;;;;;5120909;28;9835;-77
2022/01/06 23:14:39;;;;;;;;;1.75;1.00;;;;;;;;5120340;27;11367;-79
2022/01/06 23:17:05;;;;;;;;;0.00;0.00;;;;;;;;5120310;27;10508;-78
2022/01/06 23:19:31;;;;;;;;;2.00;1.00;;;;;;;;5120808;27;11723;-79
2022/01/06 23:21:56;;;;;;;;;0.50;0.00;;;;;;;;5121702;27;11523;-78
2022/01/06 23:24:21;;;;;;;;;1.00;1.00;;;;;;;;5121030;27;10720;-78
2022/01/06 23:26:47;;;;;;;;;1.00;1.00;;;;;;;;5120089;28;10928;-78
2022/01/06 23:29:12;;;;;;;;;0.75;0.75;;;;;;;;5121993;27;8861;-78
2022/01/06 23:31:38;;;;;;;;;0.75;0.00;;;;;;;;5122056;27;11487;-78
2022/01/06 23:34:08;;;;;;;;;0.00;0.00;;;;;;;;5121912;27;8806;-78
2022/01/06 23:36:33;;;;;;;;;0.00;0.00;;;;;;;;5122133;27;11456;-78
2022/01/06 23:38:59;;;;;;;;;1.00;1.00;;;;;;;;5122370;27;11421;-78
2022/01/06 23:41:27;;;;;;;;;1.25;1.00;;;;;;;;5122301;28;9004;-79
2022/01/06 23:43:53;;;;;;;;;1.25;0.50;;;;;;;;5121183;27;8794;-78
2022/01/06 23:46:19;;;;;;;;;1.00;1.00;;;;;;;;5121605;27;11576;-79
2022/01/06 23:48:47;;;;;;;;;1.00;1.00;;;;;;;;5121412;28;12163;-78
2022/01/06 23:51:12;;;;;;;;;1.00;1.00;;;;;;;;5121798;28;8794;-77
2022/01/06 23:53:38;;;;;;;;;1.75;1.00;;;;;;;;5121624;27;11469;-77
2022/01/06 23:56:04;;;;;;;;;2.75;1.00;;;;;;;;5120552;28;8813;-78
2022/01/06 23:58:29;;;;;;;;;0.00;0.00;;;;;;;;5121115;27;8807;-79
